Aérodrome :
LOGIN :

S'inscrire | Disclaimer

   EN    FR    IT 

 










Légende :    VFR   VFR Marginal   IFR   IFR Intensif   IFR Très Intensif
Visi : 
Plafond : 
>= 8 km
>= 3000ft
5 à 8 km
1000 à 3000 ft
1500m à 5 km
500 à 1000 ft
800 à 1500m
200 à 500 ft
< 800m
< 200 ft
Symboles :   Orages  Brouillard  Fortes neiges  Fortes précipitations  Vent > 20 kt
SIGMETs :   Divers  Orages  Givrage  Turbulence  Onde Orograph.  Cendres Volcan.







- Altitude de l'aérodrome : 1416 ft
- Code IATA : ZRH


LSZH - Zurich

DERNIER METAR :
  • 211350Z 06008KT 030V090 CAVOK 12/M03 Q1030 NOSIG

METARs EXPIRÉS :
  • 211320Z 08008KT 040V120 CAVOK 12/M02 Q1030 NOSIG
  • 211250Z 06006KT 010V090 CAVOK 11/M03 Q1030 NOSIG
  • 211220Z 04008KT 350V060 CAVOK 11/M02 Q1031 NOSIG
  • 211150Z 07009KT 020V100 CAVOK 10/M02 Q1031 NOSIG
  • 211120Z 05007KT 350V110 CAVOK 09/M03 Q1031 NOSIG

TAF TAF LSZH
Valide du 21 à 12h jusqu'au 22 à 18h UTC


211125Z 2112/2218 05007KT CAVOK TX13/2115Z TNM01/2205Z TX17/2215Z
BECMG 2115/2118 VRB02KT
BECMG 2200/2203 4000 BR SCT005
PROB40
TEMPO 2204/2207 BKN005
PROB30 2204/2207 0600 PRFG BKN002
BECMG 2207/2209 8000 FEW010
BECMG 2209/2212 CAVOK
ATIS : +41 43 816 2295 (DEP) +41 43 816 2294 (ARR)
Pas de NOTAMs connus pour ce terrain.



MET'MAP, la Météo Aéronautique d'un coup d'oeil ! - Copyright ORBIFLY Décembre 2007 - Disclaimer

ORBIFLY MET'MAP TEAM :

Programmation & Développement : Alexandra Zaïnal
Conception & Développement : Baudouin d'Aumeries
Co-Programmation & Développement : Marc-Olivier Méhu
Soutien technique & logistique : Manuel Goepfert

Contact : metmap@orbifly.com




SOURCES & CREDITS :

   NOAA